createdAt,value
2022-10-08T00:01:13.996Z,101368.19
2022-10-08T00:06:19.376Z,101370.53
2022-10-08T00:11:41.394Z,101373.47
2022-10-08T00:16:45.427Z,101381.16
2022-10-08T00:21:57.331Z,101371.03
2022-10-08T00:27:00.395Z,101377.72
2022-10-08T00:32:04.697Z,101375.69
2022-10-08T00:37:06.394Z,101379.00
2022-10-08T00:42:12.545Z,101375.13
2022-10-08T00:47:37.980Z,101374.94
2022-10-08T00:52:44.018Z,101369.38
2022-10-08T00:57:49.381Z,101376.22
2022-10-08T01:02:53.037Z,101380.78
2022-10-08T01:08:02.927Z,101384.47
2022-10-08T01:13:21.744Z,101390.16
2022-10-08T01:18:29.560Z,101395.88
2022-10-08T01:24:03.205Z,101390.69
2022-10-08T01:29:15.918Z,101377.06
2022-10-08T01:34:30.900Z,101375.69
2022-10-08T01:39:36.785Z,101363.16
2022-10-08T01:44:54.368Z,101352.16
2022-10-08T01:50:04.070Z,101341.31
2022-10-08T01:55:12.073Z,101341.03
2022-10-08T02:00:15.227Z,101353.13
2022-10-08T02:05:19.384Z,101357.19
2022-10-08T02:10:25.015Z,101350.69
2022-10-08T02:15:41.231Z,101370.66
2022-10-08T02:20:45.526Z,101371.88
2022-10-08T02:25:54.640Z,101372.03
2022-10-08T02:31:02.030Z,101369.56
2022-10-08T02:36:06.319Z,101367.06
2022-10-08T02:41:08.938Z,101347.63
2022-10-08T02:46:18.681Z,101355.84
2022-10-08T02:51:28.128Z,101363.19
2022-10-08T02:56:38.903Z,101365.41
2022-10-08T03:01:49.431Z,101364.94
2022-10-08T03:06:59.359Z,101365.47
2022-10-08T03:12:08.771Z,101381.56
2022-10-08T03:17:13.505Z,101381.06
2022-10-08T03:22:15.200Z,101386.63
2022-10-08T03:27:17.929Z,101384.13
2022-10-08T03:32:24.422Z,101385.97
2022-10-08T03:37:31.024Z,101390.97
2022-10-08T03:42:32.722Z,101401.00
2022-10-08T03:47:36.839Z,101408.22
2022-10-08T03:52:43.220Z,101419.09
2022-10-08T03:57:47.472Z,101421.31
2022-10-08T04:02:51.114Z,101409.91
2022-10-08T04:07:55.497Z,101417.84
2022-10-08T04:13:00.969Z,101400.50
2022-10-08T04:18:03.577Z,101421.31
2022-10-08T04:23:07.649Z,101413.31
2022-10-08T04:28:11.659Z,101414.19
2022-10-08T04:33:13.452Z,101425.44
2022-10-08T04:38:15.182Z,101429.94
2022-10-08T04:43:20.223Z,101439.16
2022-10-08T04:48:24.281Z,101433.81
2022-10-08T04:53:32.530Z,101434.34
2022-10-08T04:58:34.556Z,101440.06
2022-10-08T05:03:42.105Z,101431.88
2022-10-08T05:08:45.033Z,101440.59
2022-10-08T05:13:52.383Z,101442.09
2022-10-08T05:18:56.834Z,101437.25
2022-10-08T05:24:01.326Z,101446.63
2022-10-08T05:29:07.623Z,101447.97
2022-10-08T05:34:09.681Z,101457.38
2022-10-08T05:39:17.184Z,101450.84
2022-10-08T05:44:20.507Z,101458.38
2022-10-08T05:49:25.316Z,101462.41
2022-10-08T05:54:29.182Z,101467.28
2022-10-08T05:59:35.805Z,101478.28
2022-10-08T06:04:40.505Z,101480.50
2022-10-08T06:09:51.263Z,101486.16
2022-10-08T06:14:55.321Z,101498.56
2022-10-08T06:20:00.179Z,101504.41
2022-10-08T06:25:02.473Z,101510.44
2022-10-08T06:30:07.276Z,101514.59
2022-10-08T06:35:16.950Z,101527.97
2022-10-08T06:40:20.912Z,101533.03
2022-10-08T06:45:25.742Z,101535.50
2022-10-08T06:50:29.457Z,101555.59
2022-10-08T06:55:35.925Z,101563.13
2022-10-08T07:00:41.712Z,101565.97
2022-10-08T07:06:03.390Z,101577.50
2022-10-08T07:11:05.147Z,101595.25
2022-10-08T07:16:20.728Z,101626.03
2022-10-08T07:21:30.564Z,101635.91
2022-10-08T07:26:35.380Z,101631.25
2022-10-08T07:31:41.874Z,101632.09
2022-10-08T07:36:43.830Z,101645.13
2022-10-08T07:41:48.135Z,101646.09
2022-10-08T07:46:51.916Z,101639.78
2022-10-08T07:51:56.865Z,101638.44
2022-10-08T07:57:06.747Z,101642.31
2022-10-08T08:02:11.140Z,101656.59
2022-10-08T08:07:12.942Z,101655.72
2022-10-08T08:12:20.396Z,101664.06
2022-10-08T08:17:23.929Z,101673.72
2022-10-08T08:22:27.896Z,101675.03
2022-10-08T08:27:32.911Z,101681.16
2022-10-08T08:32:39.444Z,101687.59
2022-10-08T08:37:43.782Z,101703.69
2022-10-08T08:42:56.772Z,101712.47
2022-10-08T08:48:23.963Z,101706.84
2022-10-08T08:53:28.162Z,101722.50
2022-10-08T08:59:04.204Z,101724.91
2022-10-08T09:04:21.943Z,101741.84
2022-10-08T09:09:24.455Z,101752.25
2022-10-08T09:14:37.517Z,101751.88
2022-10-08T09:19:40.762Z,101761.56
2022-10-08T09:24:44.860Z,101774.56
2022-10-08T09:29:47.594Z,101780.63
2022-10-08T09:34:51.876Z,101780.00
2022-10-08T09:40:29.221Z,101777.59
2022-10-08T09:45:31.039Z,101787.31
2022-10-08T09:50:36.822Z,101798.50
2022-10-08T09:55:42.153Z,101792.31
2022-10-08T10:00:45.015Z,101793.03
2022-10-08T10:05:51.793Z,101786.88
2022-10-08T10:10:54.672Z,101785.13
2022-10-08T10:16:03.039Z,101786.28
2022-10-08T10:21:13.450Z,101782.41
2022-10-08T10:26:23.502Z,101793.28
2022-10-08T10:31:27.477Z,101804.09
2022-10-08T10:36:35.549Z,101811.84
2022-10-08T10:41:47.096Z,101827.19
2022-10-08T10:46:57.045Z,101824.34
2022-10-08T10:52:36.084Z,101819.91
2022-10-08T10:57:56.015Z,101827.56
2022-10-08T11:03:10.065Z,101822.38
2022-10-08T11:08:39.417Z,101831.59
2022-10-08T11:14:12.659Z,101825.63
2022-10-08T11:19:49.595Z,101820.50
2022-10-08T11:25:19.354Z,101824.00
2022-10-08T11:30:43.261Z,101825.44
2022-10-08T11:35:49.980Z,101840.75
2022-10-08T11:40:56.632Z,101838.09
2022-10-08T11:46:22.445Z,101840.72
2022-10-08T11:51:25.007Z,101851.81
2022-10-08T11:56:50.113Z,101849.03
2022-10-08T12:01:55.721Z,101848.19
2022-10-08T12:07:04.040Z,101849.50
2022-10-08T12:12:13.489Z,101858.72
2022-10-08T12:17:15.936Z,101864.97
2022-10-08T12:22:24.972Z,101881.53
2022-10-08T12:27:40.101Z,101873.78
2022-10-08T12:32:42.789Z,101889.88
2022-10-08T12:38:14.694Z,101896.31
2022-10-08T12:43:47.800Z,101882.91
2022-10-08T12:49:00.769Z,101876.78
2022-10-08T12:54:04.659Z,101902.47
2022-10-08T12:59:08.081Z,101902.72
2022-10-08T13:04:26.123Z,101908.34
2022-10-08T13:09:36.564Z,101904.69
2022-10-08T13:14:39.984Z,101901.84
2022-10-08T13:19:44.000Z,101915.59
2022-10-08T13:24:51.391Z,101919.31
2022-10-08T13:29:55.072Z,101925.94
2022-10-08T13:35:01.050Z,101942.88
2022-10-08T13:40:06.251Z,101944.16
2022-10-08T13:45:18.009Z,101941.25
2022-10-08T13:50:21.047Z,101944.28
2022-10-08T13:55:29.038Z,101942.91
2022-10-08T14:00:33.728Z,101958.19
2022-10-08T14:05:47.566Z,101964.91
2022-10-08T14:10:49.524Z,101977.66
2022-10-08T14:15:53.534Z,101973.31
2022-10-08T14:20:58.617Z,101974.75
2022-10-08T14:26:02.786Z,101983.22
2022-10-08T14:31:08.480Z,101991.69
2022-10-08T14:36:21.208Z,101988.16
2022-10-08T14:41:26.012Z,101996.53
2022-10-08T14:46:30.151Z,102003.38
2022-10-08T14:51:38.637Z,102022.13
2022-10-08T14:56:43.151Z,102030.56
2022-10-08T15:01:47.040Z,102029.16
2022-10-08T15:06:51.430Z,102031.66
2022-10-08T15:11:55.945Z,102035.50
2022-10-08T15:16:59.444Z,102031.78
2022-10-08T15:22:05.529Z,102043.94
2022-10-08T15:27:07.282Z,102052.75
2022-10-08T15:32:15.956Z,102048.28
2022-10-08T15:37:20.028Z,102053.97
2022-10-08T15:42:25.985Z,102060.78
2022-10-08T15:47:31.417Z,102068.63
2022-10-08T15:52:34.486Z,102073.94
2022-10-08T15:57:38.722Z,102081.63
2022-10-08T16:02:43.935Z,102085.09
2022-10-08T16:07:48.761Z,102094.13
2022-10-08T16:12:53.487Z,102098.59
2022-10-08T16:17:55.257Z,102105.06
2022-10-08T16:22:59.514Z,102113.91
2022-10-08T16:28:03.624Z,102122.00
2022-10-08T16:33:05.395Z,102124.72
2022-10-08T16:38:07.137Z,102132.31
2022-10-08T16:43:13.103Z,102129.13
2022-10-08T16:48:21.078Z,102147.16
2022-10-08T16:53:27.440Z,102156.06
2022-10-08T16:58:29.146Z,102163.44
2022-10-08T17:03:30.938Z,102175.53
2022-10-08T17:08:35.429Z,102168.03
2022-10-08T17:13:50.252Z,102173.50
2022-10-08T17:18:55.878Z,102189.56
2022-10-08T17:24:01.613Z,102194.66
2022-10-08T17:29:11.563Z,102205.97
2022-10-08T17:34:13.286Z,102211.06
2022-10-08T17:39:21.999Z,102215.47
2022-10-08T17:44:28.824Z,102236.16
2022-10-08T17:49:30.757Z,102239.63
2022-10-08T17:54:35.098Z,102247.28
2022-10-08T17:59:44.426Z,102244.88
2022-10-08T18:04:51.815Z,102255.13
2022-10-08T18:09:58.096Z,102251.56
2022-10-08T18:15:05.849Z,102259.94
2022-10-08T18:20:15.142Z,102269.34
2022-10-08T18:25:21.589Z,102271.84
2022-10-08T18:30:23.341Z,102284.38
2022-10-08T18:35:29.494Z,102284.84
2022-10-08T18:40:34.030Z,102295.44
2022-10-08T18:45:36.185Z,102296.56
2022-10-08T18:50:42.659Z,102299.59
2022-10-08T18:55:49.783Z,102301.41
2022-10-08T19:00:57.478Z,102305.69
2022-10-08T19:06:06.983Z,102312.69
2022-10-08T19:11:17.539Z,102320.41
2022-10-08T19:16:23.722Z,102333.91
2022-10-08T19:21:26.278Z,102332.31
2022-10-08T19:26:34.883Z,102345.00
2022-10-08T19:31:36.683Z,102344.75
2022-10-08T19:36:38.700Z,102345.28
2022-10-08T19:41:46.866Z,102355.56
2022-10-08T19:46:49.254Z,102355.19
2022-10-08T19:51:54.188Z,102362.53
2022-10-08T19:56:59.461Z,102366.78
2022-10-08T20:02:03.668Z,102368.16
2022-10-08T20:07:10.334Z,102365.94
2022-10-08T20:12:12.017Z,102371.50
2022-10-08T20:17:14.486Z,102376.63
2022-10-08T20:22:17.247Z,102381.72
2022-10-08T20:27:20.490Z,102390.97
2022-10-08T20:32:24.612Z,102389.91
2022-10-08T20:37:31.862Z,102395.56
2022-10-08T20:42:37.046Z,102396.28
2022-10-08T20:47:38.884Z,102398.97
2022-10-08T20:52:41.080Z,102403.94
2022-10-08T20:57:45.322Z,102404.50
2022-10-08T21:02:49.603Z,102412.81
2022-10-08T21:07:51.559Z,102411.13
2022-10-08T21:12:53.231Z,102423.13
2022-10-08T21:17:57.458Z,102416.94
2022-10-08T21:23:04.607Z,102416.66
2022-10-08T21:28:06.345Z,102422.91
2022-10-08T21:33:09.455Z,102430.50
2022-10-08T21:38:17.938Z,102425.56
2022-10-08T21:43:22.050Z,102429.09
2022-10-08T21:48:25.043Z,102435.44
2022-10-08T21:53:34.780Z,102445.44
2022-10-08T21:58:48.860Z,102444.31
2022-10-08T22:03:58.744Z,102451.47
2022-10-08T22:09:00.651Z,102453.88
2022-10-08T22:14:05.919Z,102450.22
2022-10-08T22:19:07.795Z,102448.25
2022-10-08T22:24:11.698Z,102447.53
2022-10-08T22:29:14.176Z,102448.53
2022-10-08T22:34:17.950Z,102456.94
2022-10-08T22:39:19.664Z,102452.72
2022-10-08T22:44:23.665Z,102447.91
2022-10-08T22:49:25.411Z,102449.47
2022-10-08T22:54:27.188Z,102453.84
2022-10-08T22:59:33.676Z,102459.59
2022-10-08T23:04:37.592Z,102458.91
2022-10-08T23:09:42.170Z,102465.63
2022-10-08T23:14:43.884Z,102466.03
2022-10-08T23:19:45.554Z,102473.34
2022-10-08T23:24:53.513Z,102481.91
2022-10-08T23:29:57.528Z,102476.69
2022-10-08T23:34:59.231Z,102477.38
2022-10-08T23:40:03.680Z,102483.00
2022-10-08T23:45:10.673Z,102484.66
2022-10-08T23:50:27.416Z,102482.50
2022-10-08T23:55:29.152Z,102488.09
